sensor_id;sensor_type;location;lat;lon;timestamp;pressure;altitude;pressure_sealevel;temperature;humidity
78431;BME280;67727;50.236;22.452;2023-04-08T00:02:10;100082.29;;;2.38;81.26
78431;BME280;67727;50.236;22.452;2023-04-08T00:04:37;100077.52;;;2.34;81.18
78431;BME280;67727;50.236;22.452;2023-04-08T00:07:03;100075.31;;;2.31;80.90
78431;BME280;67727;50.236;22.452;2023-04-08T00:09:31;100073.27;;;2.30;81.02
78431;BME280;67727;50.236;22.452;2023-04-08T00:11:58;100070.98;;;2.31;81.00
78431;BME280;67727;50.236;22.452;2023-04-08T00:14:25;100071.89;;;2.32;81.01
78431;BME280;67727;50.236;22.452;2023-04-08T00:16:52;100070.66;;;2.35;81.05
78431;BME280;67727;50.236;22.452;2023-04-08T00:19:18;100074.16;;;2.39;81.33
78431;BME280;67727;50.236;22.452;2023-04-08T00:21:45;100073.81;;;2.41;80.70
78431;BME280;67727;50.236;22.452;2023-04-08T00:24:13;100078.59;;;2.43;80.96
78431;BME280;67727;50.236;22.452;2023-04-08T00:26:40;100078.52;;;2.44;80.90
78431;BME280;67727;50.236;22.452;2023-04-08T00:29:07;100076.80;;;2.43;80.82
78431;BME280;67727;50.236;22.452;2023-04-08T00:31:33;100080.49;;;2.43;80.72
78431;BME280;67727;50.236;22.452;2023-04-08T00:34:00;100078.30;;;2.44;80.89
78431;BME280;67727;50.236;22.452;2023-04-08T00:36:27;100079.25;;;2.46;80.66
78431;BME280;67727;50.236;22.452;2023-04-08T00:38:55;100076.78;;;2.49;80.79
78431;BME280;67727;50.236;22.452;2023-04-08T00:41:22;100076.79;;;2.53;80.48
78431;BME280;67727;50.236;22.452;2023-04-08T00:43:49;100074.07;;;2.57;80.60
78431;BME280;67727;50.236;22.452;2023-04-08T00:46:16;100074.24;;;2.57;80.41
78431;BME280;67727;50.236;22.452;2023-04-08T00:48:43;100070.87;;;2.53;80.25
78431;BME280;67727;50.236;22.452;2023-04-08T00:51:10;100069.27;;;2.49;80.33
78431;BME280;67727;50.236;22.452;2023-04-08T00:53:37;100069.46;;;2.44;80.09
78431;BME280;67727;50.236;22.452;2023-04-08T00:56:04;100074.04;;;2.36;80.04
78431;BME280;67727;50.236;22.452;2023-04-08T00:58:31;100080.86;;;2.29;80.11
78431;BME280;67727;50.236;22.452;2023-04-08T01:01:25;100085.33;;;2.23;80.14
78431;BME280;67727;50.236;22.452;2023-04-08T01:06:35;100089.11;;;2.14;79.86
78431;BME280;67727;50.236;22.452;2023-04-08T01:09:09;100090.52;;;2.12;79.99
78431;BME280;67727;50.236;22.452;2023-04-08T01:11:41;100093.67;;;2.09;80.08
78431;BME280;67727;50.236;22.452;2023-04-08T01:14:10;100095.80;;;2.06;80.00
78431;BME280;67727;50.236;22.452;2023-04-08T01:16:39;100095.16;;;2.03;80.05
78431;BME280;67727;50.236;22.452;2023-04-08T01:19:07;100095.13;;;1.99;80.07
78431;BME280;67727;50.236;22.452;2023-04-08T01:21:36;100096.63;;;1.93;79.97
78431;BME280;67727;50.236;22.452;2023-04-08T01:24:25;100094.79;;;1.87;80.13
78431;BME280;67727;50.236;22.452;2023-04-08T01:26:55;100093.59;;;1.81;80.38
78431;BME280;67727;50.236;22.452;2023-04-08T01:29:24;100092.80;;;1.78;80.19
78431;BME280;67727;50.236;22.452;2023-04-08T01:31:52;100093.70;;;1.75;80.65
78431;BME280;67727;50.236;22.452;2023-04-08T01:34:20;100093.93;;;1.72;80.74
78431;BME280;67727;50.236;22.452;2023-04-08T01:36:48;100091.64;;;1.68;80.76
78431;BME280;67727;50.236;22.452;2023-04-08T01:39:16;100095.09;;;1.63;81.18
78431;BME280;67727;50.236;22.452;2023-04-08T01:41:45;100097.62;;;1.55;81.18
78431;BME280;67727;50.236;22.452;2023-04-08T01:44:12;100099.49;;;1.48;81.40
78431;BME280;67727;50.236;22.452;2023-04-08T01:46:40;100098.93;;;1.41;81.57
78431;BME280;67727;50.236;22.452;2023-04-08T01:49:08;100099.88;;;1.40;81.89
78431;BME280;67727;50.236;22.452;2023-04-08T01:51:37;100103.44;;;1.44;81.28
78431;BME280;67727;50.236;22.452;2023-04-08T01:54:04;100105.27;;;1.47;81.52
78431;BME280;67727;50.236;22.452;2023-04-08T01:56:35;100102.42;;;1.53;81.58
78431;BME280;67727;50.236;22.452;2023-04-08T01:59:05;100107.14;;;1.58;81.39
78431;BME280;67727;50.236;22.452;2023-04-08T02:01:35;100109.73;;;1.61;81.35
78431;BME280;67727;50.236;22.452;2023-04-08T02:04:03;100111.82;;;1.63;81.52
78431;BME280;67727;50.236;22.452;2023-04-08T02:06:30;100114.14;;;1.65;81.31
78431;BME280;67727;50.236;22.452;2023-04-08T02:08:58;100111.10;;;1.66;81.41
78431;BME280;67727;50.236;22.452;2023-04-08T02:11:25;100112.91;;;1.65;81.30
78431;BME280;67727;50.236;22.452;2023-04-08T02:13:54;100113.50;;;1.61;81.37
78431;BME280;67727;50.236;22.452;2023-04-08T02:16:23;100112.64;;;1.56;81.59
78431;BME280;67727;50.236;22.452;2023-04-08T02:18:59;100115.43;;;1.52;81.75
78431;BME280;67727;50.236;22.452;2023-04-08T02:21:37;100116.05;;;1.48;81.81
78431;BME280;67727;50.236;22.452;2023-04-08T02:24:06;100125.79;;;1.48;81.68
78431;BME280;67727;50.236;22.452;2023-04-08T02:26:35;100125.89;;;1.49;81.24
78431;BME280;67727;50.236;22.452;2023-04-08T02:29:04;100128.16;;;1.51;81.16
78431;BME280;67727;50.236;22.452;2023-04-08T02:31:32;100125.77;;;1.55;81.02
78431;BME280;67727;50.236;22.452;2023-04-08T02:34:00;100126.23;;;1.59;81.34
78431;BME280;67727;50.236;22.452;2023-04-08T02:36:27;100123.46;;;1.56;80.68
78431;BME280;67727;50.236;22.452;2023-04-08T02:38:54;100124.86;;;1.51;80.82
78431;BME280;67727;50.236;22.452;2023-04-08T02:41:22;100124.10;;;1.45;81.00
78431;BME280;67727;50.236;22.452;2023-04-08T02:43:49;100132.96;;;1.32;80.74
78431;BME280;67727;50.236;22.452;2023-04-08T02:46:20;100130.70;;;1.22;80.96
78431;BME280;67727;50.236;22.452;2023-04-08T02:48:48;100129.63;;;1.18;81.07
78431;BME280;67727;50.236;22.452;2023-04-08T02:51:15;100131.19;;;1.16;81.10
78431;BME280;67727;50.236;22.452;2023-04-08T02:53:41;100134.50;;;1.15;81.40
78431;BME280;67727;50.236;22.452;2023-04-08T02:56:09;100138.09;;;1.16;81.03
78431;BME280;67727;50.236;22.452;2023-04-08T02:58:37;100138.10;;;1.19;81.22
78431;BME280;67727;50.236;22.452;2023-04-08T03:01:03;100139.91;;;1.20;81.13
78431;BME280;67727;50.236;22.452;2023-04-08T03:03:31;100140.30;;;1.20;81.13
78431;BME280;67727;50.236;22.452;2023-04-08T03:05:57;100142.29;;;1.18;81.19
78431;BME280;67727;50.236;22.452;2023-04-08T03:08:24;100142.51;;;1.18;81.15
78431;BME280;67727;50.236;22.452;2023-04-08T03:10:51;100144.42;;;1.15;81.11
78431;BME280;67727;50.236;22.452;2023-04-08T03:13:18;100145.08;;;1.14;81.23
78431;BME280;67727;50.236;22.452;2023-04-08T03:15:45;100149.05;;;1.11;81.19
78431;BME280;67727;50.236;22.452;2023-04-08T03:18:12;100148.83;;;1.09;81.06
78431;BME280;67727;50.236;22.452;2023-04-08T03:20:39;100148.41;;;1.11;81.36
78431;BME280;67727;50.236;22.452;2023-04-08T03:23:06;100149.91;;;1.11;81.23
78431;BME280;67727;50.236;22.452;2023-04-08T03:25:32;100146.73;;;1.12;81.50
78431;BME280;67727;50.236;22.452;2023-04-08T03:27:59;100151.68;;;1.11;81.72
78431;BME280;67727;50.236;22.452;2023-04-08T03:30:26;100152.75;;;1.10;81.77
78431;BME280;67727;50.236;22.452;2023-04-08T03:32:53;100155.67;;;1.11;81.71
78431;BME280;67727;50.236;22.452;2023-04-08T03:35:20;100156.80;;;1.10;81.98
78431;BME280;67727;50.236;22.452;2023-04-08T03:37:47;100155.64;;;1.07;81.99
78431;BME280;67727;50.236;22.452;2023-04-08T03:40:14;100158.72;;;1.05;82.06
78431;BME280;67727;50.236;22.452;2023-04-08T03:42:41;100162.86;;;1.08;81.98
78431;BME280;67727;50.236;22.452;2023-04-08T03:45:08;100164.80;;;1.12;81.84
78431;BME280;67727;50.236;22.452;2023-04-08T03:47:35;100164.33;;;1.19;82.08
78431;BME280;67727;50.236;22.452;2023-04-08T03:50:02;100163.82;;;1.29;82.04
78431;BME280;67727;50.236;22.452;2023-04-08T03:52:29;100162.46;;;1.36;82.09
78431;BME280;67727;50.236;22.452;2023-04-08T03:54:55;100164.70;;;1.42;81.65
78431;BME280;67727;50.236;22.452;2023-04-08T03:57:22;100166.65;;;1.46;81.82
78431;BME280;67727;50.236;22.452;2023-04-08T03:59:49;100165.70;;;1.47;81.64
78431;BME280;67727;50.236;22.452;2023-04-08T04:02:16;100162.15;;;1.46;81.50
78431;BME280;67727;50.236;22.452;2023-04-08T04:04:43;100164.64;;;1.45;81.36
78431;BME280;67727;50.236;22.452;2023-04-08T04:07:09;100165.06;;;1.44;81.39
78431;BME280;67727;50.236;22.452;2023-04-08T04:09:36;100165.80;;;1.46;81.31
78431;BME280;67727;50.236;22.452;2023-04-08T04:12:03;100168.77;;;1.48;81.46
78431;BME280;67727;50.236;22.452;2023-04-08T04:14:30;100169.05;;;1.52;81.38
78431;BME280;67727;50.236;22.452;2023-04-08T04:16:57;100166.19;;;1.55;81.36
78431;BME280;67727;50.236;22.452;2023-04-08T04:19:24;100166.30;;;1.58;81.45
78431;BME280;67727;50.236;22.452;2023-04-08T04:21:51;100170.05;;;1.60;81.46
78431;BME280;67727;50.236;22.452;2023-04-08T04:24:18;100178.67;;;1.61;81.65
78431;BME280;67727;50.236;22.452;2023-04-08T04:26:45;100181.29;;;1.61;81.80
78431;BME280;67727;50.236;22.452;2023-04-08T04:29:12;100188.27;;;1.61;81.54
78431;BME280;67727;50.236;22.452;2023-04-08T04:31:39;100183.64;;;1.60;81.59
78431;BME280;67727;50.236;22.452;2023-04-08T04:34:06;100184.23;;;1.61;81.62
78431;BME280;67727;50.236;22.452;2023-04-08T04:36:33;100182.65;;;1.64;81.55
78431;BME280;67727;50.236;22.452;2023-04-08T04:39:00;100187.29;;;1.67;81.57
78431;BME280;67727;50.236;22.452;2023-04-08T04:41:27;100191.38;;;1.71;81.87
78431;BME280;67727;50.236;22.452;2023-04-08T04:43:54;100191.18;;;1.76;81.41
78431;BME280;67727;50.236;22.452;2023-04-08T04:46:21;100194.99;;;1.81;81.58
78431;BME280;67727;50.236;22.452;2023-04-08T04:48:48;100192.10;;;1.85;81.48
78431;BME280;67727;50.236;22.452;2023-04-08T04:51:15;100191.66;;;1.87;81.65
78431;BME280;67727;50.236;22.452;2023-04-08T04:53:42;100194.49;;;1.88;81.70
78431;BME280;67727;50.236;22.452;2023-04-08T04:56:10;100200.17;;;1.89;81.65
78431;BME280;67727;50.236;22.452;2023-04-08T04:58:37;100197.20;;;1.89;81.55
78431;BME280;67727;50.236;22.452;2023-04-08T05:01:04;100205.40;;;1.89;82.12
78431;BME280;67727;50.236;22.452;2023-04-08T05:03:32;100206.89;;;1.91;81.62
78431;BME280;67727;50.236;22.452;2023-04-08T05:05:59;100210.73;;;1.93;82.06
78431;BME280;67727;50.236;22.452;2023-04-08T05:08:26;100212.30;;;1.98;81.88
78431;BME280;67727;50.236;22.452;2023-04-08T05:10:53;100212.06;;;2.04;82.06
78431;BME280;67727;50.236;22.452;2023-04-08T05:13:21;100210.43;;;2.10;81.79
78431;BME280;67727;50.236;22.452;2023-04-08T05:15:48;100213.27;;;2.14;82.06
78431;BME280;67727;50.236;22.452;2023-04-08T05:18:15;100213.70;;;2.15;82.17
78431;BME280;67727;50.236;22.452;2023-04-08T05:20:42;100213.22;;;2.16;82.15
78431;BME280;67727;50.236;22.452;2023-04-08T05:23:09;100214.11;;;2.16;82.15
78431;BME280;67727;50.236;22.452;2023-04-08T05:25:36;100212.56;;;2.16;82.07
78431;BME280;67727;50.236;22.452;2023-04-08T05:28:03;100213.65;;;2.15;82.42
78431;BME280;67727;50.236;22.452;2023-04-08T05:30:30;100216.52;;;2.17;82.35
78431;BME280;67727;50.236;22.452;2023-04-08T05:32:57;100216.02;;;2.19;82.32
78431;BME280;67727;50.236;22.452;2023-04-08T05:35:24;100217.23;;;2.22;82.68
78431;BME280;67727;50.236;22.452;2023-04-08T05:37:55;100220.92;;;2.26;82.37
78431;BME280;67727;50.236;22.452;2023-04-08T05:40:22;100217.89;;;2.34;82.53
78431;BME280;67727;50.236;22.452;2023-04-08T05:42:49;100221.04;;;2.41;82.45
78431;BME280;67727;50.236;22.452;2023-04-08T05:45:16;100218.35;;;2.44;82.64
78431;BME280;67727;50.236;22.452;2023-04-08T05:47:43;100220.56;;;2.50;82.65
78431;BME280;67727;50.236;22.452;2023-04-08T05:50:11;100216.16;;;2.56;83.03
78431;BME280;67727;50.236;22.452;2023-04-08T05:52:42;100214.77;;;2.63;82.91
78431;BME280;67727;50.236;22.452;2023-04-08T05:55:13;100214.11;;;2.71;82.73
78431;BME280;67727;50.236;22.452;2023-04-08T05:57:40;100217.08;;;2.81;82.83
78431;BME280;67727;50.236;22.452;2023-04-08T06:00:09;100214.73;;;2.89;82.30
78431;BME280;67727;50.236;22.452;2023-04-08T06:02:36;100210.58;;;2.93;82.72
78431;BME280;67727;50.236;22.452;2023-04-08T06:05:06;100209.86;;;2.98;82.36
78431;BME280;67727;50.236;22.452;2023-04-08T06:07:33;100212.38;;;3.01;82.50
78431;BME280;67727;50.236;22.452;2023-04-08T06:10:00;100216.09;;;3.08;82.78
78431;BME280;67727;50.236;22.452;2023-04-08T06:12:27;100212.82;;;3.12;82.41
78431;BME280;67727;50.236;22.452;2023-04-08T06:14:54;100214.56;;;3.16;82.57
78431;BME280;67727;50.236;22.452;2023-04-08T06:17:22;100220.95;;;3.22;82.38
78431;BME280;67727;50.236;22.452;2023-04-08T06:19:49;100215.23;;;3.28;82.21
78431;BME280;67727;50.236;22.452;2023-04-08T06:22:17;100214.88;;;3.33;82.05
78431;BME280;67727;50.236;22.452;2023-04-08T06:24:46;100216.89;;;3.41;82.08
78431;BME280;67727;50.236;22.452;2023-04-08T06:27:14;100218.36;;;3.46;82.38
78431;BME280;67727;50.236;22.452;2023-04-08T06:29:41;100221.58;;;3.50;82.40
78431;BME280;67727;50.236;22.452;2023-04-08T06:32:08;100222.92;;;3.53;82.52
78431;BME280;67727;50.236;22.452;2023-04-08T06:34:35;100228.55;;;3.55;82.32
78431;BME280;67727;50.236;22.452;2023-04-08T06:37:02;100226.13;;;3.54;82.15
78431;BME280;67727;50.236;22.452;2023-04-08T06:39:29;100231.08;;;3.56;82.04
78431;BME280;67727;50.236;22.452;2023-04-08T06:41:56;100226.83;;;3.54;82.00
78431;BME280;67727;50.236;22.452;2023-04-08T06:44:24;100222.83;;;3.52;82.11
78431;BME280;67727;50.236;22.452;2023-04-08T06:46:51;100222.08;;;3.50;82.09
78431;BME280;67727;50.236;22.452;2023-04-08T06:49:19;100224.13;;;3.51;82.06
78431;BME280;67727;50.236;22.452;2023-04-08T06:51:49;100229.95;;;3.55;82.23
78431;BME280;67727;50.236;22.452;2023-04-08T06:54:15;100233.34;;;3.61;82.14
78431;BME280;67727;50.236;22.452;2023-04-08T06:56:42;100240.41;;;3.67;82.32
78431;BME280;67727;50.236;22.452;2023-04-08T06:59:09;100243.19;;;3.71;82.27
78431;BME280;67727;50.236;22.452;2023-04-08T07:01:36;100243.55;;;3.75;82.02
78431;BME280;67727;50.236;22.452;2023-04-08T07:04:03;100244.69;;;3.79;82.23
78431;BME280;67727;50.236;22.452;2023-04-08T07:06:30;100246.52;;;3.85;82.51
78431;BME280;67727;50.236;22.452;2023-04-08T07:08:57;100242.23;;;3.90;82.88
78431;BME280;67727;50.236;22.452;2023-04-08T07:11:25;100239.48;;;3.96;82.98
78431;BME280;67727;50.236;22.452;2023-04-08T07:13:52;100237.30;;;4.02;82.83
78431;BME280;67727;50.236;22.452;2023-04-08T07:16:19;100242.44;;;4.10;82.51
78431;BME280;67727;50.236;22.452;2023-04-08T07:18:46;100239.04;;;4.20;82.72
78431;BME280;67727;50.236;22.452;2023-04-08T07:21:16;100240.33;;;4.29;82.76
78431;BME280;67727;50.236;22.452;2023-04-08T07:23:43;100244.08;;;4.37;82.80
78431;BME280;67727;50.236;22.452;2023-04-08T07:26:10;100248.17;;;4.43;82.93
78431;BME280;67727;50.236;22.452;2023-04-08T07:28:37;100250.30;;;4.47;82.58
78431;BME280;67727;50.236;22.452;2023-04-08T07:31:15;100249.42;;;4.49;82.60
78431;BME280;67727;50.236;22.452;2023-04-08T07:33:43;100248.61;;;4.52;82.61
78431;BME280;67727;50.236;22.452;2023-04-08T07:36:11;100251.20;;;4.57;82.71
78431;BME280;67727;50.236;22.452;2023-04-08T07:38:39;100250.27;;;4.64;82.67
78431;BME280;67727;50.236;22.452;2023-04-08T07:41:06;100251.07;;;4.74;82.71
78431;BME280;67727;50.236;22.452;2023-04-08T07:43:34;100251.18;;;4.81;82.78
78431;BME280;67727;50.236;22.452;2023-04-08T07:46:03;100254.77;;;4.86;82.53
78431;BME280;67727;50.236;22.452;2023-04-08T07:48:31;100255.03;;;4.92;82.54
78431;BME280;67727;50.236;22.452;2023-04-08T07:51:01;100259.30;;;4.97;82.38
78431;BME280;67727;50.236;22.452;2023-04-08T07:53:28;100259.50;;;4.99;82.12
78431;BME280;67727;50.236;22.452;2023-04-08T07:55:57;100258.88;;;5.00;82.06
78431;BME280;67727;50.236;22.452;2023-04-08T07:58:25;100261.42;;;5.03;81.80
78431;BME280;67727;50.236;22.452;2023-04-08T08:00:52;100266.63;;;5.10;81.82
78431;BME280;67727;50.236;22.452;2023-04-08T08:03:19;100263.59;;;5.15;81.89
78431;BME280;67727;50.236;22.452;2023-04-08T08:05:47;100266.47;;;5.21;81.87
78431;BME280;67727;50.236;22.452;2023-04-08T08:08:14;100264.89;;;5.23;81.63
78431;BME280;67727;50.236;22.452;2023-04-08T08:10:41;100260.13;;;5.25;81.76
78431;BME280;67727;50.236;22.452;2023-04-08T08:13:07;100254.77;;;5.31;81.88
78431;BME280;67727;50.236;22.452;2023-04-08T08:15:34;100259.42;;;5.35;81.92
78431;BME280;67727;50.236;22.452;2023-04-08T08:18:01;100260.00;;;5.43;81.80
78431;BME280;67727;50.236;22.452;2023-04-08T08:20:29;100262.15;;;5.49;81.66
78431;BME280;67727;50.236;22.452;2023-04-08T08:22:56;100261.67;;;5.52;81.70
78431;BME280;67727;50.236;22.452;2023-04-08T08:25:23;100266.19;;;5.53;81.40
78431;BME280;67727;50.236;22.452;2023-04-08T08:27:50;100263.98;;;5.52;81.56
78431;BME280;67727;50.236;22.452;2023-04-08T08:30:17;100262.23;;;5.52;81.69
78431;BME280;67727;50.236;22.452;2023-04-08T08:32:46;100262.77;;;5.54;81.72
78431;BME280;67727;50.236;22.452;2023-04-08T08:35:14;100264.09;;;5.55;81.78
78431;BME280;67727;50.236;22.452;2023-04-08T08:37:41;100266.87;;;5.59;81.73
78431;BME280;67727;50.236;22.452;2023-04-08T08:40:08;100262.33;;;5.61;81.74
78431;BME280;67727;50.236;22.452;2023-04-08T08:42:36;100261.36;;;5.64;81.83
78431;BME280;67727;50.236;22.452;2023-04-08T08:45:04;100263.08;;;5.69;81.82
78431;BME280;67727;50.236;22.452;2023-04-08T08:47:32;100266.98;;;5.77;82.10
78431;BME280;67727;50.236;22.452;2023-04-08T08:49:59;100269.03;;;5.83;82.14
78431;BME280;67727;50.236;22.452;2023-04-08T08:52:26;100270.90;;;5.92;82.11
78431;BME280;67727;50.236;22.452;2023-04-08T08:54:57;100274.60;;;6.02;82.03
78431;BME280;67727;50.236;22.452;2023-04-08T08:57:25;100275.58;;;6.11;81.94
78431;BME280;67727;50.236;22.452;2023-04-08T08:59:52;100282.92;;;6.23;82.00
78431;BME280;67727;50.236;22.452;2023-04-08T09:02:28;100284.63;;;6.36;81.76
78431;BME280;67727;50.236;22.452;2023-04-08T09:04:57;100284.12;;;6.50;81.43
78431;BME280;67727;50.236;22.452;2023-04-08T09:07:26;100280.70;;;6.59;80.91
78431;BME280;67727;50.236;22.452;2023-04-08T09:09:54;100279.48;;;6.68;80.96
78431;BME280;67727;50.236;22.452;2023-04-08T09:12:22;100284.66;;;6.81;81.35
78431;BME280;67727;50.236;22.452;2023-04-08T09:14:50;100288.20;;;6.95;80.70
78431;BME280;67727;50.236;22.452;2023-04-08T09:17:31;100288.66;;;7.09;80.87
78431;BME280;67727;50.236;22.452;2023-04-08T09:22:56;100294.13;;;7.24;80.15
78431;BME280;67727;50.236;22.452;2023-04-08T09:25:29;100293.08;;;7.31;80.16
78431;BME280;67727;50.236;22.452;2023-04-08T09:27:56;100293.98;;;7.41;80.09
78431;BME280;67727;50.236;22.452;2023-04-08T09:30:24;100295.86;;;7.53;79.92
78431;BME280;67727;50.236;22.452;2023-04-08T09:32:56;100298.11;;;7.62;79.25
78431;BME280;67727;50.236;22.452;2023-04-08T09:35:24;100298.64;;;7.72;79.03
78431;BME280;67727;50.236;22.452;2023-04-08T09:37:52;100300.39;;;7.79;79.18
78431;BME280;67727;50.236;22.452;2023-04-08T09:40:18;100301.45;;;7.85;78.33
78431;BME280;67727;50.236;22.452;2023-04-08T09:42:47;100303.52;;;7.87;78.07
78431;BME280;67727;50.236;22.452;2023-04-08T09:45:17;100306.32;;;7.91;78.08
78431;BME280;67727;50.236;22.452;2023-04-08T09:50:23;100298.81;;;7.96;77.76
78431;BME280;67727;50.236;22.452;2023-04-08T09:52:59;100299.05;;;7.99;77.74
78431;BME280;67727;50.236;22.452;2023-04-08T09:55:29;100300.39;;;8.06;77.56
78431;BME280;67727;50.236;22.452;2023-04-08T09:58:00;100299.17;;;8.14;77.47
78431;BME280;67727;50.236;22.452;2023-04-08T10:00:38;100300.68;;;8.26;77.35
78431;BME280;67727;50.236;22.452;2023-04-08T10:05:40;100300.27;;;8.57;76.98
78431;BME280;67727;50.236;22.452;2023-04-08T10:08:07;100299.63;;;8.71;76.78
78431;BME280;67727;50.236;22.452;2023-04-08T10:10:38;100301.16;;;8.82;76.48
78431;BME280;67727;50.236;22.452;2023-04-08T10:13:06;100303.20;;;8.91;76.48
78431;BME280;67727;50.236;22.452;2023-04-08T10:15:34;100304.45;;;9.00;76.01
78431;BME280;67727;50.236;22.452;2023-04-08T10:23:00;100298.80;;;9.29;75.25
78431;BME280;67727;50.236;22.452;2023-04-08T10:25:34;100296.49;;;9.36;74.09
78431;BME280;67727;50.236;22.452;2023-04-08T10:30:49;100296.21;;;9.50;74.23
78431;BME280;67727;50.236;22.452;2023-04-08T10:33:21;100297.63;;;9.62;73.78
78431;BME280;67727;50.236;22.452;2023-04-08T10:38:21;100295.89;;;9.77;73.36
78431;BME280;67727;50.236;22.452;2023-04-08T10:40:48;100295.55;;;9.81;73.34
78431;BME280;67727;50.236;22.452;2023-04-08T10:43:15;100295.22;;;9.85;72.75
78431;BME280;67727;50.236;22.452;2023-04-08T10:45:43;100293.05;;;9.84;72.55
78431;BME280;67727;50.236;22.452;2023-04-08T10:48:18;100291.80;;;9.85;72.33
78431;BME280;67727;50.236;22.452;2023-04-08T10:50:59;100293.34;;;9.86;72.91
78431;BME280;67727;50.236;22.452;2023-04-08T10:53:34;100296.11;;;9.93;72.45
78431;BME280;67727;50.236;22.452;2023-04-08T10:56:09;100289.54;;;10.00;72.71
78431;BME280;67727;50.236;22.452;2023-04-08T10:58:49;100288.94;;;10.06;71.28
78431;BME280;67727;50.236;22.452;2023-04-08T11:01:17;100290.69;;;10.08;71.48
78431;BME280;67727;50.236;22.452;2023-04-08T11:03:44;100291.70;;;10.12;71.74
78431;BME280;67727;50.236;22.452;2023-04-08T11:06:11;100286.70;;;10.13;71.14
78431;BME280;67727;50.236;22.452;2023-04-08T11:08:39;100286.66;;;10.17;71.74
78431;BME280;67727;50.236;22.452;2023-04-08T11:11:07;100283.48;;;10.22;71.22
78431;BME280;67727;50.236;22.452;2023-04-08T11:13:41;100287.84;;;10.29;71.52
78431;BME280;67727;50.236;22.452;2023-04-08T11:16:09;100283.97;;;10.34;70.12
78431;BME280;67727;50.236;22.452;2023-04-08T11:18:37;100286.66;;;10.32;70.20
78431;BME280;67727;50.236;22.452;2023-04-08T11:21:09;100283.79;;;10.36;70.74
78431;BME280;67727;50.236;22.452;2023-04-08T11:23:36;100285.55;;;10.41;70.27
78431;BME280;67727;50.236;22.452;2023-04-08T11:26:04;100282.05;;;10.42;70.48
78431;BME280;67727;50.236;22.452;2023-04-08T11:28:31;100281.67;;;10.49;70.91
78431;BME280;67727;50.236;22.452;2023-04-08T11:30:58;100281.13;;;10.57;70.40
78431;BME280;67727;50.236;22.452;2023-04-08T11:33:26;100282.60;;;10.64;70.19
78431;BME280;67727;50.236;22.452;2023-04-08T11:35:53;100280.09;;;10.66;69.81
78431;BME280;67727;50.236;22.452;2023-04-08T11:38:23;100277.48;;;10.64;69.48
78431;BME280;67727;50.236;22.452;2023-04-08T11:40:55;100279.40;;;10.66;69.97
78431;BME280;67727;50.236;22.452;2023-04-08T11:43:22;100277.04;;;10.63;69.08
78431;BME280;67727;50.236;22.452;2023-04-08T11:45:49;100279.31;;;10.59;69.65
78431;BME280;67727;50.236;22.452;2023-04-08T11:48:17;100278.05;;;10.61;69.86
78431;BME280;67727;50.236;22.452;2023-04-08T11:50:44;100275.98;;;10.58;69.08
78431;BME280;67727;50.236;22.452;2023-04-08T11:53:18;100269.36;;;10.55;69.10
78431;BME280;67727;50.236;22.452;2023-04-08T11:55:46;100270.06;;;10.52;69.20
78431;BME280;67727;50.236;22.452;2023-04-08T11:58:14;100273.64;;;10.48;69.64
78431;BME280;67727;50.236;22.452;2023-04-08T12:00:41;100275.45;;;10.41;69.28
78431;BME280;67727;50.236;22.452;2023-04-08T12:03:09;100276.92;;;10.35;69.65
78431;BME280;67727;50.236;22.452;2023-04-08T12:05:37;100273.10;;;10.31;70.02
78431;BME280;67727;50.236;22.452;2023-04-08T12:08:04;100275.70;;;10.27;69.93
78431;BME280;67727;50.236;22.452;2023-04-08T12:10:31;100277.41;;;10.21;69.95
78431;BME280;67727;50.236;22.452;2023-04-08T12:12:58;100281.77;;;10.14;69.84
78431;BME280;67727;50.236;22.452;2023-04-08T12:15:25;100280.41;;;10.08;69.95
78431;BME280;67727;50.236;22.452;2023-04-08T12:17:52;100280.61;;;10.04;70.14
78431;BME280;67727;50.236;22.452;2023-04-08T12:20:20;100277.85;;;10.02;70.25
78431;BME280;67727;50.236;22.452;2023-04-08T12:22:46;100278.86;;;9.98;70.09
78431;BME280;67727;50.236;22.452;2023-04-08T12:25:14;100273.54;;;9.91;70.32
78431;BME280;67727;50.236;22.452;2023-04-08T12:27:41;100274.58;;;9.83;69.84
78431;BME280;67727;50.236;22.452;2023-04-08T12:30:09;100275.89;;;9.74;70.46
78431;BME280;67727;50.236;22.452;2023-04-08T12:32:36;100274.99;;;9.64;70.62
78431;BME280;67727;50.236;22.452;2023-04-08T12:35:03;100272.27;;;9.53;70.17
78431;BME280;67727;50.236;22.452;2023-04-08T12:37:30;100275.02;;;9.46;70.78
78431;BME280;67727;50.236;22.452;2023-04-08T12:39:58;100270.57;;;9.39;71.14
78431;BME280;67727;50.236;22.452;2023-04-08T12:42:25;100273.91;;;9.34;71.34
78431;BME280;67727;50.236;22.452;2023-04-08T12:44:53;100276.70;;;9.31;71.00
78431;BME280;67727;50.236;22.452;2023-04-08T12:47:20;100274.71;;;9.26;71.31
78431;BME280;67727;50.236;22.452;2023-04-08T12:49:47;100270.11;;;9.21;71.47
78431;BME280;67727;50.236;22.452;2023-04-08T12:52:15;100270.66;;;9.16;71.65
78431;BME280;67727;50.236;22.452;2023-04-08T12:54:43;100264.75;;;9.10;71.93
78431;BME280;67727;50.236;22.452;2023-04-08T12:57:10;100270.58;;;9.02;72.11
78431;BME280;67727;50.236;22.452;2023-04-08T12:59:38;100266.18;;;8.95;72.23
78431;BME280;67727;50.236;22.452;2023-04-08T13:02:05;100263.48;;;8.88;72.79
78431;BME280;67727;50.236;22.452;2023-04-08T13:04:33;100265.21;;;8.82;72.55
78431;BME280;67727;50.236;22.452;2023-04-08T13:07:00;100261.97;;;8.75;72.75
78431;BME280;67727;50.236;22.452;2023-04-08T13:09:27;100265.42;;;8.71;73.02
78431;BME280;67727;50.236;22.452;2023-04-08T13:11:55;100266.09;;;8.67;72.93
78431;BME280;67727;50.236;22.452;2023-04-08T13:14:23;100266.44;;;8.66;72.91